Time;durP1;ratioP1;P1;durP2;ratioP2;P2;SDS_P1;SDS_P2;PMS_P1;PMS_P2;Temp;Humidity;BMP_temperature;BMP_pressure;BME280_temperature;BME280_humidity;BME280_pressure;Samples;Min_cycle;Max_cycle;Signal;HPM_P1;HPM_P2
2022/12/05 00:01:28;;;;;;;37.10;20.77;;;4.60;99.90;;;;;;5106710;28;20063;-70
2022/12/05 00:03:57;;;;;;;37.87;20.57;;;4.60;99.90;;;;;;5109233;28;20044;-71
2022/12/05 00:06:24;;;;;;;37.70;20.53;;;4.60;99.90;;;;;;5115919;28;20044;-71
2022/12/05 00:08:49;;;;;;;35.37;19.70;;;4.60;99.90;;;;;;5086935;28;20062;-70
2022/12/05 00:11:19;;;;;;;35.60;20.43;;;4.60;99.90;;;;;;5110632;28;20550;-71
2022/12/05 00:13:46;;;;;;;37.63;20.37;;;4.60;99.90;;;;;;5108647;28;20048;-70
2022/12/05 00:16:15;;;;;;;33.37;20.47;;;4.60;99.90;;;;;;5089394;28;20087;-71
2022/12/05 00:18:41;;;;;;;34.20;19.37;;;4.60;99.90;;;;;;5106993;28;20155;-70
2022/12/05 00:21:12;;;;;;;35.43;21.77;;;4.60;99.90;;;;;;5089098;28;20470;-70
2022/12/05 00:23:37;;;;;;;32.67;19.70;;;4.60;99.90;;;;;;5110179;28;20062;-70
2022/12/05 00:26:04;;;;;;;37.07;21.07;;;4.60;99.90;;;;;;5059782;28;20040;-70
2022/12/05 00:28:31;;;;;;;34.57;20.27;;;4.60;99.90;;;;;;5091116;28;20048;-70
2022/12/05 00:31:01;;;;;;;37.80;20.43;;;4.60;99.90;;;;;;5105726;28;20550;-70
2022/12/05 00:33:27;;;;;;;35.80;19.93;;;4.60;99.90;;;;;;5111334;28;20046;-71
2022/12/05 00:35:52;;;;;;;37.33;20.70;;;4.60;99.90;;;;;;5106720;28;20068;-70
2022/12/05 00:38:18;;;;;;;38.40;21.00;;;4.60;99.90;;;;;;5107097;28;20040;-70
2022/12/05 00:40:43;;;;;;;36.73;21.67;;;4.70;99.90;;;;;;5093507;28;20079;-70
2022/12/05 00:43:09;;;;;;;33.70;19.97;;;4.70;99.90;;;;;;5087237;28;20682;-71
2022/12/05 00:45:35;;;;;;;37.00;20.67;;;4.60;99.90;;;;;;5073700;28;20040;-70
2022/12/05 00:48:00;;;;;;;38.33;21.47;;;4.60;99.90;;;;;;5092890;28;20047;-70
2022/12/05 00:50:26;;;;;;;38.17;20.77;;;4.70;99.90;;;;;;5114354;27;20034;-70
2022/12/05 00:52:52;;;;;;;38.67;21.47;;;4.70;99.90;;;;;;5110339;27;20052;-70
2022/12/05 00:55:17;;;;;;;41.00;21.97;;;4.70;99.90;;;;;;5114790;27;20047;-71
2022/12/05 00:57:43;;;;;;;38.73;21.60;;;4.70;99.90;;;;;;5112176;27;20340;-70
2022/12/05 01:00:09;;;;;;;39.57;21.93;;;4.70;99.90;;;;;;5107334;27;20065;-71
2022/12/05 01:02:35;;;;;;;35.93;21.03;;;4.80;99.90;;;;;;5093261;28;20050;-70
2022/12/05 01:05:00;;;;;;;38.33;21.97;;;4.80;99.90;;;;;;5101032;27;20481;-70
2022/12/05 01:07:26;;;;;;;41.70;22.73;;;4.80;99.90;;;;;;5114488;27;20087;-71
2022/12/05 01:09:52;;;;;;;38.27;22.00;;;4.80;99.90;;;;;;5092716;28;20106;-71
2022/12/05 01:12:18;;;;;;;35.77;20.63;;;4.80;99.90;;;;;;5111942;27;20060;-71
2022/12/05 01:14:43;;;;;;;38.03;22.03;;;4.80;99.90;;;;;;5086229;27;20047;-71
2022/12/05 01:17:09;;;;;;;35.53;21.33;;;4.80;99.90;;;;;;5112728;27;20149;-70
2022/12/05 01:19:35;;;;;;;40.73;22.53;;;4.80;99.90;;;;;;5113667;27;20038;-71
2022/12/05 01:22:01;;;;;;;43.30;22.27;;;4.80;99.90;;;;;;5090791;28;20036;-71
2022/12/05 01:24:28;;;;;;;40.17;21.40;;;4.80;99.90;;;;;;5111813;27;20039;-70
2022/12/05 01:26:54;;;;;;;43.07;23.30;;;4.90;99.90;;;;;;5110513;27;20075;-71
2022/12/05 01:29:22;;;;;;;41.10;22.23;;;4.80;99.90;;;;;;5109959;27;20043;-71
2022/12/05 01:31:48;;;;;;;42.60;23.10;;;4.90;99.90;;;;;;5092319;28;20052;-70
2022/12/05 01:34:16;;;;;;;39.73;23.43;;;4.90;99.90;;;;;;5113735;27;20139;-70
2022/12/05 01:36:42;;;;;;;43.57;23.43;;;4.90;99.90;;;;;;5112267;27;20052;-71
2022/12/05 01:39:09;;;;;;;46.67;23.87;;;5.00;99.90;;;;;;5092579;28;20131;-71
2022/12/05 01:41:39;;;;;;;45.23;23.37;;;5.00;99.90;;;;;;5093897;28;20051;-70
2022/12/05 01:44:25;;;;;;;47.73;23.80;;;5.00;99.90;;;;;;5115162;27;20463;-70
2022/12/05 01:46:52;;;;;;;48.40;25.03;;;5.10;99.90;;;;;;5053886;28;20054;-71
2022/12/05 01:49:30;;;;;;;45.93;25.17;;;5.00;99.90;;;;;;5109042;27;20062;-71
2022/12/05 01:52:01;;;;;;;45.63;24.20;;;5.00;99.90;;;;;;5113213;27;20717;-71
2022/12/05 01:54:28;;;;;;;47.83;24.27;;;5.10;99.90;;;;;;5093285;27;20435;-71
2022/12/05 01:57:01;;;;;;;48.33;26.50;;;5.00;99.90;;;;;;5109514;27;20100;-71
2022/12/05 01:59:31;;;;;;;51.17;27.67;;;5.10;99.90;;;;;;5112211;27;20084;-70
2022/12/05 02:01:57;;;;;;;54.03;28.20;;;5.10;99.90;;;;;;5098320;27;20119;-70
2022/12/05 02:04:23;;;;;;;52.73;28.33;;;5.00;99.90;;;;;;5092072;28;20070;-71
2022/12/05 02:06:49;;;;;;;51.13;28.20;;;5.10;99.90;;;;;;5106062;27;20063;-71
2022/12/05 02:09:14;;;;;;;54.77;29.00;;;5.00;99.90;;;;;;5076421;28;20062;-70
2022/12/05 02:11:56;;;;;;;52.73;28.77;;;5.10;99.90;;;;;;5109341;27;20032;-71
2022/12/05 02:14:40;;;;;;;53.63;28.33;;;5.10;99.90;;;;;;5107944;27;20077;-70
2022/12/05 02:17:57;;;;;;;54.87;29.73;;;5.10;99.90;;;;;;5107953;27;21019;-71
2022/12/05 02:20:52;;;;;;;51.80;28.17;;;5.10;99.90;;;;;;5106551;27;20059;-71
2022/12/05 02:23:36;;;;;;;50.43;26.97;;;5.10;99.90;;;;;;5115469;27;20047;-71
2022/12/05 02:26:11;;;;;;;50.90;26.67;;;5.10;99.90;;;;;;5110254;27;20103;-71
2022/12/05 02:29:13;;;;;;;52.20;28.63;;;5.10;99.90;;;;;;5110715;27;20070;-71
2022/12/05 02:31:52;;;;;;;52.67;27.33;;;5.10;99.90;;;;;;5116377;27;20748;-71
2022/12/05 02:34:49;;;;;;;52.57;28.03;;;5.10;99.90;;;;;;5106251;27;20046;-71
2022/12/05 02:37:48;;;;;;;53.13;27.70;;;5.20;99.90;;;;;;5108639;27;20113;-71
2022/12/05 02:40:26;;;;;;;48.07;25.57;;;5.20;99.90;;;;;;5090280;27;20056;-71
2022/12/05 02:43:11;;;;;;;48.47;26.00;;;5.10;99.90;;;;;;5093356;27;20684;-70
2022/12/05 02:45:38;;;;;;;51.30;26.73;;;5.20;99.90;;;;;;5108984;27;20040;-70
2022/12/05 02:48:05;;;;;;;50.63;27.10;;;5.20;99.90;;;;;;5109350;27;20059;-71
2022/12/05 02:50:35;;;;;;;49.17;24.63;;;5.20;99.90;;;;;;5109156;27;20037;-71
2022/12/05 02:53:09;;;;;;;50.43;26.00;;;5.20;99.90;;;;;;5108421;27;20040;-70
2022/12/05 02:55:37;;;;;;;53.63;27.13;;;5.20;99.90;;;;;;5107991;27;20043;-71
2022/12/05 02:58:08;;;;;;;52.23;27.03;;;5.20;99.90;;;;;;5114640;27;20028;-71
2022/12/05 03:00:35;;;;;;;54.10;26.40;;;5.20;99.90;;;;;;5109585;27;20063;-70
2022/12/05 03:03:01;;;;;;;46.43;26.10;;;5.20;99.90;;;;;;5106597;27;20060;-71
2022/12/05 03:06:05;;;;;;;49.33;24.23;;;5.20;99.90;;;;;;5091065;28;20270;-71
2022/12/05 03:08:38;;;;;;;46.97;25.37;;;5.20;99.90;;;;;;5103539;27;20052;-70
2022/12/05 03:11:04;;;;;;;47.80;24.43;;;5.20;99.90;;;;;;5114830;27;20640;-71
2022/12/05 03:13:38;;;;;;;45.60;23.83;;;5.10;99.90;;;;;;5108740;27;20054;-71
2022/12/05 03:16:15;;;;;;;44.53;22.80;;;5.20;99.90;;;;;;5126953;27;20050;-71
2022/12/05 03:18:58;;;;;;;45.90;22.97;;;5.20;99.90;;;;;;5108271;27;20044;-71
2022/12/05 03:21:31;;;;;;;44.27;21.93;;;5.20;99.90;;;;;;5103812;27;20052;-70
2022/12/05 03:24:01;;;;;;;39.47;22.50;;;5.20;99.90;;;;;;5108307;27;20537;-70
2022/12/05 03:26:39;;;;;;;46.93;22.90;;;5.20;99.90;;;;;;5110447;27;20147;-71
2022/12/05 03:29:32;;;;;;;41.50;23.03;;;5.20;99.90;;;;;;5109405;27;20048;-71
2022/12/05 03:32:19;;;;;;;49.10;25.00;;;5.20;99.90;;;;;;5112596;27;20039;-70
2022/12/05 03:34:48;;;;;;;46.43;25.93;;;5.10;99.90;;;;;;5104876;27;20068;-70
2022/12/05 03:37:39;;;;;;;43.13;23.70;;;5.10;99.90;;;;;;5103966;27;20051;-71
2022/12/05 03:40:31;;;;;;;49.43;24.97;;;5.10;99.90;;;;;;5095390;27;20044;-71
2022/12/05 03:43:14;;;;;;;48.50;23.87;;;5.10;99.90;;;;;;5105333;28;20052;-71
2022/12/05 03:45:51;;;;;;;46.90;24.23;;;5.10;99.90;;;;;;5108823;28;20317;-70
2022/12/05 03:48:49;;;;;;;43.23;23.73;;;5.10;99.90;;;;;;5111011;27;20124;-71
2022/12/05 03:51:17;;;;;;;40.47;22.57;;;5.10;99.90;;;;;;5107984;28;20511;-71
2022/12/05 03:54:05;;;;;;;39.93;22.30;;;5.10;99.90;;;;;;5107890;27;20040;-70
2022/12/05 03:56:35;;;;;;;40.20;22.47;;;5.10;99.90;;;;;;5113590;27;20055;-71
2022/12/05 03:59:17;;;;;;;37.97;21.90;;;5.10;99.90;;;;;;5109254;28;20036;-71
2022/12/05 04:01:47;;;;;;;41.20;21.60;;;5.10;99.90;;;;;;5092397;28;20051;-70
2022/12/05 04:04:20;;;;;;;38.03;20.57;;;5.10;99.90;;;;;;5104186;28;20072;-71
2022/12/05 04:06:50;;;;;;;35.20;20.23;;;5.10;99.90;;;;;;5111758;28;20066;-70
2022/12/05 04:09:27;;;;;;;32.17;19.97;;;5.20;99.90;;;;;;5107006;28;20047;-71
2022/12/05 04:11:58;;;;;;;35.93;20.73;;;5.20;99.90;;;;;;5109884;28;20066;-71
2022/12/05 04:14:38;;;;;;;35.03;19.33;;;5.10;99.90;;;;;;5108315;28;20047;-71
2022/12/05 04:17:09;;;;;;;31.87;19.80;;;5.20;99.90;;;;;;5109702;28;20044;-71
2022/12/05 04:22:39;;;;;;;31.47;19.03;;;5.20;99.90;;;;;;5110873;27;20036;-71
2022/12/05 04:27:59;;;;;;;30.70;18.80;;;5.20;99.90;;;;;;5117444;27;20036;-71
2022/12/05 04:30:48;;;;;;;32.65;19.58;;;5.20;99.90;;;;;;5111985;27;20083;-70
2022/12/05 04:33:16;;;;;;;28.90;18.57;;;5.20;99.90;;;;;;5110430;27;20059;-71
2022/12/05 04:36:11;;;;;;;34.13;19.53;;;5.20;99.90;;;;;;5094844;28;20047;-71
2022/12/05 04:38:50;;;;;;;31.60;19.40;;;5.20;99.90;;;;;;5116867;27;20556;-71
2022/12/05 04:41:27;;;;;;;30.93;18.90;;;5.20;99.90;;;;;;5109269;27;20052;-71
2022/12/05 04:43:58;;;;;;;31.13;17.67;;;5.20;99.90;;;;;;5109639;27;20048;-71
2022/12/05 04:46:23;;;;;;;29.87;17.43;;;5.20;99.90;;;;;;5114524;27;20036;-70
2022/12/05 04:48:55;;;;;;;23.70;15.33;;;5.20;99.90;;;;;;5107660;27;20044;-70
2022/12/05 04:51:25;;;;;;;22.80;15.25;;;5.20;99.90;;;;;;5108003;27;20043;-70
2022/12/05 04:53:59;;;;;;;23.50;14.87;;;5.20;99.90;;;;;;5096172;28;20044;-70
2022/12/05 04:56:31;;;;;;;20.30;13.07;;;5.20;99.90;;;;;;5110214;27;20040;-70
2022/12/05 04:58:56;;;;;;;20.73;13.77;;;5.20;99.90;;;;;;5111249;27;20124;-70
2022/12/05 05:01:44;;;;;;;19.60;12.50;;;5.20;99.90;;;;;;5111667;27;20067;-70
2022/12/05 05:04:12;;;;;;;16.40;11.33;;;5.20;99.90;;;;;;5091657;28;20044;-71
2022/12/05 05:06:39;;;;;;;15.03;10.73;;;5.20;99.90;;;;;;5111872;27;20051;-70
2022/12/05 05:09:05;;;;;;;14.73;9.93;;;5.20;99.90;;;;;;5097058;28;20410;-70
2022/12/05 05:11:33;;;;;;;15.57;10.33;;;5.20;99.90;;;;;;5115028;27;20054;-70
2022/12/05 05:13:59;;;;;;;14.97;10.53;;;5.20;99.90;;;;;;5096346;28;20040;-71
2022/12/05 05:16:34;;;;;;;16.03;11.07;;;5.20;99.90;;;;;;5110132;27;20039;-71
2022/12/05 05:19:00;;;;;;;13.57;9.43;;;5.30;99.90;;;;;;5109408;27;20083;-70
2022/12/05 05:21:27;;;;;;;11.97;9.47;;;5.30;99.90;;;;;;5115455;27;20039;-70
2022/12/05 05:23:53;;;;;;;12.97;10.10;;;5.30;99.90;;;;;;5108537;27;20059;-71
2022/12/05 05:26:20;;;;;;;12.90;8.90;;;5.30;99.90;;;;;;5096998;28;20055;-71
2022/12/05 05:28:46;;;;;;;13.57;9.67;;;5.30;99.90;;;;;;5094961;28;20036;-72
2022/12/05 05:31:13;;;;;;;14.73;9.70;;;5.30;99.90;;;;;;5110107;27;20035;-70
2022/12/05 05:33:39;;;;;;;12.43;9.37;;;5.30;99.90;;;;;;5109819;27;20044;-71
2022/12/05 05:36:10;;;;;;;13.20;9.73;;;5.30;99.90;;;;;;5092327;28;20509;-71
2022/12/05 05:38:41;;;;;;;12.77;9.17;;;5.30;99.90;;;;;;5107444;27;20051;-70
2022/12/05 05:41:37;;;;;;;12.00;9.63;;;5.30;99.90;;;;;;5109590;27;20114;-70
2022/12/05 05:44:04;;;;;;;13.57;9.43;;;5.30;99.90;;;;;;5106199;27;20499;-70
2022/12/05 05:46:32;;;;;;;14.10;9.27;;;5.30;99.90;;;;;;5107158;27;20051;-71
2022/12/05 05:48:58;;;;;;;14.00;9.57;;;5.30;99.90;;;;;;5111738;27;20046;-70
2022/12/05 05:51:26;;;;;;;12.57;9.40;;;5.30;99.90;;;;;;5107257;27;20473;-70
2022/12/05 05:53:52;;;;;;;14.00;9.77;;;5.30;99.90;;;;;;5112116;27;20047;-70
2022/12/05 05:56:19;;;;;;;15.00;9.90;;;5.30;99.90;;;;;;5089083;28;20514;-70
2022/12/05 05:58:46;;;;;;;13.47;10.03;;;5.30;99.90;;;;;;5107592;27;20082;-71
2022/12/05 06:01:19;;;;;;;14.77;10.20;;;5.30;99.90;;;;;;5112586;27;20035;-70
2022/12/05 06:03:45;;;;;;;13.73;10.20;;;5.30;99.90;;;;;;5107864;27;20121;-71
2022/12/05 06:06:13;;;;;;;12.57;9.37;;;5.40;99.90;;;;;;5109582;27;20498;-70
2022/12/05 06:08:41;;;;;;;14.43;9.70;;;5.30;99.90;;;;;;5091917;28;20322;-70
2022/12/05 06:11:07;;;;;;;11.07;9.27;;;5.30;99.90;;;;;;5092804;28;20035;-70
2022/12/05 06:13:34;;;;;;;13.13;9.47;;;5.30;99.90;;;;;;5110301;27;20047;-70
2022/12/05 06:15:59;;;;;;;11.83;8.63;;;5.30;99.90;;;;;;5106434;27;20479;-70
2022/12/05 06:18:25;;;;;;;11.53;9.07;;;5.40;99.90;;;;;;5095311;27;20062;-70
2022/12/05 06:20:52;;;;;;;10.50;8.00;;;5.30;99.90;;;;;;5107038;27;20040;-70
2022/12/05 06:23:18;;;;;;;10.47;8.00;;;5.30;99.90;;;;;;5115852;27;20039;-70
2022/12/05 06:25:52;;;;;;;12.17;8.30;;;5.30;99.90;;;;;;5076433;28;20059;-70
2022/12/05 06:28:18;;;;;;;11.23;8.40;;;5.40;99.90;;;;;;5110045;27;20057;-70
2022/12/05 06:30:44;;;;;;;10.90;8.27;;;5.30;99.90;;;;;;5110390;27;20528;-70
2022/12/05 06:33:10;;;;;;;10.63;8.13;;;5.40;99.90;;;;;;5091391;28;20043;-71
2022/12/05 06:35:36;;;;;;;12.43;8.67;;;5.30;99.90;;;;;;5118005;27;20506;-70
2022/12/05 06:38:02;;;;;;;12.37;8.07;;;5.30;99.90;;;;;;5111289;27;20125;-70
2022/12/05 06:40:28;;;;;;;12.50;8.97;;;5.30;99.90;;;;;;5091409;28;20036;-71
2022/12/05 06:42:54;;;;;;;12.60;8.90;;;5.40;99.90;;;;;;5090942;28;20040;-70
2022/12/05 06:45:20;;;;;;;13.13;9.17;;;5.30;99.90;;;;;;5108022;27;20043;-70
2022/12/05 06:47:45;;;;;;;12.87;8.83;;;5.30;99.90;;;;;;5093630;28;20048;-70
2022/12/05 06:50:11;;;;;;;13.43;8.67;;;5.40;99.90;;;;;;5109637;27;20043;-70
2022/12/05 06:52:37;;;;;;;12.93;9.03;;;5.30;99.90;;;;;;5109695;27;20040;-70
2022/12/05 06:55:03;;;;;;;14.17;9.53;;;5.30;99.90;;;;;;5108845;27;20517;-74
2022/12/05 06:57:29;;;;;;;14.97;9.07;;;5.30;99.90;;;;;;5091514;28;20050;-70
2022/12/05 07:01:37;;;;;;;14.17;9.43;;;5.30;99.90;;;;;;5112292;27;20042;-70
2022/12/05 07:02:41;;;;;;;13.50;8.97;;;5.30;99.90;;;;;;5110705;27;20044;-71
2022/12/05 07:05:08;;;;;;;12.60;8.93;;;5.40;99.90;;;;;;5087468;28;20066;-71
2022/12/05 07:07:34;;;;;;;16.47;9.83;;;5.40;99.90;;;;;;5066086;28;20052;-71
2022/12/05 07:10:00;;;;;;;13.63;9.40;;;5.40;99.90;;;;;;5112256;27;20047;-69
2022/12/05 07:12:25;;;;;;;13.70;9.30;;;5.30;99.90;;;;;;5109937;27;20035;-74
2022/12/05 07:14:51;;;;;;;15.03;9.13;;;5.40;99.90;;;;;;5073822;28;20133;-69
2022/12/05 07:17:20;;;;;;;15.03;9.37;;;5.40;99.90;;;;;;5103569;27;20588;-68
2022/12/05 07:19:48;;;;;;;12.83;9.13;;;5.40;99.90;;;;;;5093104;28;20147;-69
2022/12/05 07:22:14;;;;;;;14.17;9.03;;;5.40;99.90;;;;;;5107250;27;20379;-69
2022/12/05 07:24:40;;;;;;;16.10;10.00;;;5.40;99.90;;;;;;5104985;27;20113;-69
2022/12/05 07:27:06;;;;;;;14.37;9.20;;;5.40;99.90;;;;;;5096531;28;20043;-69
2022/12/05 07:29:32;;;;;;;15.03;9.43;;;5.30;99.90;;;;;;5105094;27;20104;-69
2022/12/05 07:31:57;;;;;;;14.03;8.93;;;5.40;99.90;;;;;;5113489;27;20082;-69
2022/12/05 07:34:23;;;;;;;14.73;9.13;;;5.40;99.90;;;;;;5107793;27;20039;-69
2022/12/05 07:36:49;;;;;;;13.53;9.27;;;5.40;99.90;;;;;;5107763;27;20047;-69
2022/12/05 07:39:15;;;;;;;14.63;9.60;;;5.40;99.90;;;;;;5116584;27;20058;-68
2022/12/05 07:41:41;;;;;;;15.93;9.73;;;5.40;99.90;;;;;;5102562;27;20047;-69
2022/12/05 07:44:10;;;;;;;14.60;8.80;;;5.40;99.90;;;;;;5082603;27;20047;-68
2022/12/05 07:46:36;;;;;;;15.50;8.90;;;5.40;99.90;;;;;;5095815;28;20047;-68
2022/12/05 07:49:02;;;;;;;14.93;9.20;;;5.40;99.90;;;;;;5099586;28;20063;-68
2022/12/05 07:51:28;;;;;;;15.63;9.67;;;5.40;99.90;;;;;;5097953;27;20050;-68
2022/12/05 07:53:53;;;;;;;18.83;10.53;;;5.40;99.90;;;;;;5101221;27;20069;-68
2022/12/05 07:56:20;;;;;;;15.97;9.90;;;5.40;99.90;;;;;;5100125;28;20046;-68
2022/12/05 07:58:48;;;;;;;16.83;10.10;;;5.40;99.90;;;;;;5102494;28;20066;-68
2022/12/05 08:01:19;;;;;;;16.00;9.80;;;5.40;99.90;;;;;;5103169;28;20055;-68
2022/12/05 08:03:45;;;;;;;18.52;10.43;;;5.30;99.90;;;;;;5099616;28;20058;-69
2022/12/05 08:06:14;;;;;;;16.03;9.57;;;5.40;99.90;;;;;;5100789;28;20099;-69
2022/12/05 08:08:40;;;;;;;16.33;10.47;;;5.30;99.90;;;;;;5117452;27;20404;-69
2022/12/05 08:11:16;;;;;;;15.20;10.37;;;5.30;99.90;;;;;;5102321;28;20051;-70
2022/12/05 08:13:42;;;;;;;14.37;10.13;;;5.40;99.90;;;;;;5100379;28;20047;-69
2022/12/05 08:16:14;;;;;;;17.13;10.20;;;5.30;99.90;;;;;;5100018;28;20059;-70
2022/12/05 08:18:40;;;;;;;14.00;9.48;;;5.40;99.90;;;;;;5102753;28;20090;-69
2022/12/05 08:21:18;;;;;;;16.43;9.97;;;5.30;99.90;;;;;;5082473;28;20091;-69
2022/12/05 08:23:45;;;;;;;19.23;10.90;;;5.30;99.90;;;;;;5101317;28;20081;-70
2022/12/05 08:26:19;;;;;;;19.27;10.00;;;5.30;99.90;;;;;;5102819;28;20501;-70
2022/12/05 08:28:45;;;;;;;15.70;10.00;;;5.30;99.90;;;;;;5098415;28;20123;-69
2022/12/05 08:31:14;;;;;;;16.57;10.40;;;5.30;99.90;;;;;;5090474;28;20081;-69
2022/12/05 08:33:40;;;;;;;16.73;9.87;;;5.30;99.90;;;;;;5100807;28;20111;-69
2022/12/05 08:36:09;;;;;;;18.33;9.90;;;5.30;99.90;;;;;;5102596;28;20134;-69
2022/12/05 08:38:35;;;;;;;15.33;10.17;;;5.30;99.90;;;;;;5099621;28;20071;-69
2022/12/05 08:41:03;;;;;;;17.53;10.30;;;5.40;99.90;;;;;;5101023;28;20049;-70
2022/12/05 08:43:30;;;;;;;17.10;10.00;;;5.40;99.90;;;;;;5101540;28;20039;-70
2022/12/05 08:45:56;;;;;;;17.90;10.33;;;5.30;99.90;;;;;;5082208;28;20092;-69
2022/12/05 08:48:24;;;;;;;18.60;10.10;;;5.30;99.90;;;;;;5101603;28;20047;-69
2022/12/05 08:50:49;;;;;;;15.57;9.50;;;5.30;99.90;;;;;;5099563;28;20044;-69
2022/12/05 08:53:16;;;;;;;16.97;9.37;;;5.30;99.90;;;;;;5084576;28;20119;-69
2022/12/05 08:55:42;;;;;;;15.40;9.47;;;5.30;99.90;;;;;;5099357;28;20043;-69
2022/12/05 08:58:08;;;;;;;14.60;10.00;;;5.30;99.90;;;;;;5082939;28;20047;-69
2022/12/05 09:00:33;;;;;;;15.90;9.57;;;5.30;99.90;;;;;;5098705;28;20208;-69
2022/12/05 09:02:59;;;;;;;15.73;9.70;;;5.30;99.90;;;;;;5099630;28;20047;-69
2022/12/05 09:05:25;;;;;;;15.43;9.83;;;5.30;99.90;;;;;;5101254;28;20086;-69
2022/12/05 09:07:51;;;;;;;16.90;9.60;;;5.30;99.90;;;;;;5102280;28;20047;-69
2022/12/05 09:10:17;;;;;;;15.33;9.30;;;5.30;99.90;;;;;;5087574;28;20563;-69
2022/12/05 09:12:43;;;;;;;16.17;9.70;;;5.30;99.90;;;;;;5105081;27;20089;-69
2022/12/05 09:15:10;;;;;;;14.83;9.70;;;5.30;99.90;;;;;;5104882;27;20043;-69
2022/12/05 09:17:37;;;;;;;15.13;9.13;;;5.30;99.90;;;;;;5104327;27;20073;-69
2022/12/05 09:20:05;;;;;;;15.63;9.17;;;5.30;99.90;;;;;;5105537;27;20757;-69
2022/12/05 09:22:31;;;;;;;13.30;8.80;;;5.30;99.90;;;;;;5104497;27;20032;-69
2022/12/05 09:24:56;;;;;;;14.70;9.30;;;5.30;99.90;;;;;;5100321;27;20046;-70
2022/12/05 09:27:22;;;;;;;16.00;9.93;;;5.30;99.90;;;;;;5104864;27;20052;-69
2022/12/05 09:29:48;;;;;;;15.80;9.97;;;5.20;99.90;;;;;;5102266;27;20051;-69
2022/12/05 09:32:14;;;;;;;16.70;9.87;;;5.20;99.90;;;;;;5103763;27;20055;-70
2022/12/05 09:34:40;;;;;;;17.50;10.47;;;5.20;99.90;;;;;;5086393;27;20043;-69
2022/12/05 09:37:06;;;;;;;17.73;10.43;;;5.20;99.90;;;;;;5088990;28;20051;-69
2022/12/05 09:39:33;;;;;;;16.37;10.13;;;5.20;99.90;;;;;;5105640;27;20046;-69
2022/12/05 09:42:19;;;;;;;16.20;9.70;;;5.20;99.90;;;;;;5104423;27;20066;-69
2022/12/05 09:45:16;;;;;;;14.90;9.23;;;5.20;99.90;;;;;;5104582;27;20158;-69
2022/12/05 09:48:10;;;;;;;16.83;9.63;;;5.20;99.90;;;;;;5101983;28;20066;-69
2022/12/05 09:51:02;;;;;;;15.80;10.10;;;5.20;99.90;;;;;;5103252;27;20039;-69
2022/12/05 09:53:39;;;;;;;18.90;9.85;;;5.20;99.90;;;;;;5104512;27;20127;-70
2022/12/05 09:56:08;;;;;;;15.93;10.00;;;5.20;99.90;;;;;;5103165;27;20059;-69
2022/12/05 09:58:46;;;;;;;16.37;10.23;;;5.20;99.90;;;;;;5102032;27;20043;-69
2022/12/05 10:01:33;;;;;;;18.83;10.10;;;5.20;99.90;;;;;;5103545;27;20310;-69
2022/12/05 10:04:19;;;;;;;18.03;10.43;;;5.20;99.90;;;;;;5104010;27;20032;-69
2022/12/05 10:06:50;;;;;;;18.33;10.53;;;5.20;99.90;;;;;;5104240;27;20078;-69
2022/12/05 10:09:43;;;;;;;19.00;11.17;;;5.20;99.90;;;;;;5105777;27;20130;-69
2022/12/05 10:12:33;;;;;;;17.73;10.37;;;5.20;99.90;;;;;;5103251;27;20059;-69
2022/12/05 10:15:11;;;;;;;19.47;11.40;;;5.20;99.90;;;;;;5101423;27;20039;-69
2022/12/05 10:18:17;;;;;;;19.10;10.50;;;5.20;99.90;;;;;;5098173;27;20060;-69
2022/12/05 10:20:55;;;;;;;20.90;10.97;;;5.20;99.90;;;;;;5052531;27;21609;-69
2022/12/05 10:23:33;;;;;;;17.33;10.70;;;5.20;99.90;;;;;;5099712;27;20304;-69
2022/12/05 10:26:04;;;;;;;16.33;10.67;;;5.20;99.90;;;;;;5100467;27;20047;-69
2022/12/05 10:28:51;;;;;;;22.83;10.50;;;5.20;99.90;;;;;;5103485;27;20131;-69
2022/12/05 10:31:22;;;;;;;16.90;10.17;;;5.20;99.90;;;;;;5102036;27;20039;-70
2022/12/05 10:33:55;;;;;;;19.50;11.43;;;5.20;99.90;;;;;;5084408;28;20047;-69
2022/12/05 10:36:23;;;;;;;19.33;10.97;;;5.20;99.90;;;;;;5103390;28;20039;-69
2022/12/05 10:38:49;;;;;;;17.70;11.33;;;5.20;99.90;;;;;;5100947;27;20044;-69
2022/12/05 10:41:16;;;;;;;17.03;10.23;;;5.20;99.90;;;;;;5100767;28;20058;-69
2022/12/05 10:43:43;;;;;;;15.80;9.83;;;5.20;99.90;;;;;;5104235;27;20074;-70
2022/12/05 10:46:12;;;;;;;16.67;9.53;;;5.20;99.90;;;;;;5100864;27;20049;-69
2022/12/05 10:48:40;;;;;;;16.00;9.50;;;5.30;99.90;;;;;;5103684;27;20043;-69
2022/12/05 10:51:06;;;;;;;15.63;9.87;;;5.30;99.90;;;;;;5101583;27;20130;-69
2022/12/05 10:53:38;;;;;;;19.77;10.30;;;5.30;99.90;;;;;;5104348;27;20077;-69
2022/12/05 10:56:40;;;;;;;16.45;10.00;;;5.20;99.90;;;;;;5101915;28;20055;-69
2022/12/05 10:59:08;;;;;;;14.57;9.02;;;5.30;99.90;;;;;;5101333;27;20047;-70
2022/12/05 11:01:36;;;;;;;16.80;9.40;;;5.20;99.90;;;;;;5084437;28;20381;-69
2022/12/05 11:04:18;;;;;;;17.73;9.20;;;5.30;99.90;;;;;;5101059;28;20072;-69
2022/12/05 11:07:00;;;;;;;15.13;9.55;;;5.30;99.90;;;;;;5099954;27;20073;-69
2022/12/05 11:09:32;;;;;;;14.25;8.68;;;5.30;99.90;;;;;;5101046;27;20048;-70
2022/12/05 11:12:15;;;;;;;15.30;9.43;;;5.30;99.90;;;;;;5115054;27;20040;-70
2022/12/05 11:15:01;;;;;;;19.63;9.53;;;5.30;99.90;;;;;;5101593;28;20039;-72
2022/12/05 11:17:32;;;;;;;14.97;9.43;;;5.30;99.90;;;;;;5101769;27;20043;-71
2022/12/05 11:19:58;;;;;;;14.77;9.05;;;5.30;99.90;;;;;;5101028;27;20059;-71
2022/12/05 11:22:34;;;;;;;13.60;8.97;;;5.30;99.90;;;;;;5102145;27;20055;-71
2022/12/05 11:25:20;;;;;;;15.23;9.53;;;5.30;99.90;;;;;;5099400;27;20049;-70
2022/12/05 11:27:46;;;;;;;17.50;9.20;;;5.30;99.90;;;;;;5101603;28;20048;-69
2022/12/05 11:30:12;;;;;;;15.90;9.67;;;5.30;99.90;;;;;;5098367;28;20051;-69
2022/12/05 11:32:38;;;;;;;16.53;9.40;;;5.30;99.90;;;;;;5101513;28;20062;-69
2022/12/05 11:35:26;;;;;;;15.57;8.43;;;5.30;99.90;;;;;;5100746;28;20078;-69
2022/12/05 11:38:01;;;;;;;17.63;9.67;;;5.20;99.90;;;;;;5099536;28;20049;-69
2022/12/05 11:40:32;;;;;;;16.07;9.90;;;5.30;99.90;;;;;;5116178;27;20092;-69
2022/12/05 11:43:34;;;;;;;17.02;9.80;;;5.20;99.90;;;;;;5092298;28;20043;-70
2022/12/05 11:46:23;;;;;;;15.93;8.43;;;5.30;99.90;;;;;;5100326;28;20036;-69
2022/12/05 11:48:52;;;;;;;17.80;9.20;;;5.20;99.90;;;;;;5101371;27;20603;-70
2022/12/05 11:51:18;;;;;;;17.90;10.30;;;5.20;99.90;;;;;;5081294;28;20048;-75
2022/12/05 11:54:51;;;;;;;15.90;8.93;;;5.20;99.90;;;;;;5102047;28;20055;-71
2022/12/05 11:57:42;;;;;;;13.35;8.20;;;5.20;99.90;;;;;;5020057;28;20052;-69
2022/12/05 12:00:42;;;;;;;15.13;8.53;;;5.20;99.90;;;;;;5069259;28;20115;-69
2022/12/05 12:03:13;;;;;;;16.73;8.63;;;5.20;99.90;;;;;;5099316;28;20489;-69
2022/12/05 12:05:42;;;;;;;13.40;8.88;;;5.30;99.90;;;;;;5102034;28;20075;-69
2022/12/05 12:08:23;;;;;;;12.90;8.23;;;5.20;99.90;;;;;;5099746;28;20032;-69
2022/12/05 12:10:49;;;;;;;14.27;8.13;;;5.20;99.90;;;;;;5102661;28;20054;-69
2022/12/05 12:13:26;;;;;;;16.80;7.90;;;5.20;99.90;;;;;;5101232;28;20105;-69
2022/12/05 12:16:07;;;;;;;13.20;8.30;;;5.20;99.90;;;;;;5100028;28;20062;-69
2022/12/05 12:19:14;;;;;;;12.60;8.13;;;5.20;99.90;;;;;;5101934;28;20131;-69
2022/12/05 12:21:55;;;;;;;13.30;7.27;;;5.30;99.90;;;;;;5089904;28;20056;-69
2022/12/05 12:24:27;;;;;;;12.93;8.17;;;5.20;99.90;;;;;;5101804;28;20048;-69
2022/12/05 12:27:15;;;;;;;13.82;7.97;;;5.20;99.90;;;;;;5100169;28;20069;-69
2022/12/05 12:29:48;;;;;;;10.83;6.33;;;5.20;99.90;;;;;;5100003;28;20055;-69
2022/12/05 12:32:13;;;;;;;10.03;6.93;;;5.20;99.90;;;;;;5101764;28;20058;-69
2022/12/05 12:34:51;;;;;;;11.13;6.67;;;5.30;99.90;;;;;;5100840;28;20043;-69
2022/12/05 12:37:33;;;;;;;9.77;6.73;;;5.30;99.90;;;;;;5100128;28;20696;-69
2022/12/05 12:40:11;;;;;;;11.07;6.70;;;5.20;99.90;;;;;;5101306;28;20612;-69
2022/12/05 12:43:01;;;;;;;9.47;6.90;;;5.30;99.90;;;;;;5101119;27;20460;-69
2022/12/05 12:45:36;;;;;;;11.90;6.80;;;5.30;99.90;;;;;;5104192;27;20050;-69
2022/12/05 12:48:58;;;;;;;12.20;6.43;;;5.30;99.90;;;;;;5103355;27;20177;-69
2022/12/05 12:51:24;;;;;;;9.15;5.70;;;5.30;99.90;;;;;;5022249;28;20049;-69
2022/12/05 12:53:59;;;;;;;9.83;6.03;;;5.30;99.90;;;;;;5005583;28;20239;-69
2022/12/05 12:56:50;;;;;;;7.97;6.00;;;5.30;99.90;;;;;;5077006;27;20115;-70
2022/12/05 12:59:42;;;;;;;9.50;5.73;;;5.30;99.90;;;;;;5062066;28;20059;-69
2022/12/05 13:02:34;;;;;;;7.97;5.10;;;5.30;99.90;;;;;;5105969;27;20056;-69
2022/12/05 13:05:20;;;;;;;8.97;5.87;;;5.30;99.90;;;;;;5102727;28;20130;-68
2022/12/05 13:07:57;;;;;;;10.53;6.30;;;5.30;99.90;;;;;;5102386;27;20042;-70
2022/12/05 13:10:33;;;;;;;10.07;6.00;;;5.30;99.90;;;;;;5105737;27;20043;-69
2022/12/05 13:13:01;;;;;;;10.13;5.87;;;5.30;99.90;;;;;;5103109;27;20048;-69
2022/12/05 13:15:34;;;;;;;10.10;5.53;;;5.30;99.90;;;;;;5103523;27;20389;-70